createdAt,value
2022-08-09T04:53:54.161Z,85.70
2022-08-09T05:55:53.874Z,86.04
2022-08-09T05:58:36.839Z,86.97
2022-08-09T06:01:16.030Z,85.80
2022-08-09T06:03:54.678Z,85.27
2022-08-09T06:06:28.839Z,84.88
2022-08-09T06:08:57.910Z,83.72
2022-08-09T06:11:40.774Z,83.33
2022-08-09T06:14:18.532Z,83.11
2022-08-09T06:16:52.345Z,82.85
2022-08-09T06:19:20.890Z,83.17
2022-08-09T06:21:50.297Z,82.80
2022-08-09T06:24:18.318Z,82.45
2022-08-09T06:26:49.747Z,81.84
2022-08-09T06:29:21.510Z,81.26
2022-08-09T06:32:08.862Z,81.37
2022-08-09T06:34:38.162Z,81.04
2022-08-09T06:37:13.074Z,81.04
2022-08-09T06:39:57.526Z,81.12
2022-08-09T06:42:28.552Z,80.69
2022-08-09T06:45:04.741Z,80.97
2022-08-09T06:48:00.766Z,80.82
2022-08-09T06:51:15.272Z,80.77
2022-08-09T06:56:55.007Z,80.19
2022-08-09T07:00:57.038Z,80.00
2022-08-09T07:05:58.289Z,80.41
2022-08-09T07:08:39.704Z,79.08
2022-08-09T07:11:52.070Z,78.62
2022-08-09T07:14:53.832Z,78.45
2022-08-09T07:18:19.858Z,78.29
2022-08-09T07:22:13.774Z,77.68
2022-08-09T07:26:02.318Z,76.63
2022-08-09T07:37:42.944Z,75.88
2022-08-09T07:40:17.091Z,75.94
2022-08-09T07:42:55.953Z,75.25
2022-08-09T07:45:39.882Z,75.84
2022-08-09T07:50:09.459Z,73.76
2022-08-09T07:52:40.059Z,74.02
2022-08-09T07:55:17.693Z,73.91
2022-08-09T07:57:56.056Z,74.20
2022-08-09T08:00:35.888Z,74.05
2022-08-09T08:03:04.383Z,73.46
2022-08-09T08:05:39.114Z,73.02
2022-08-09T08:08:59.673Z,72.71
2022-08-09T08:12:10.722Z,72.98
2022-08-09T08:14:07.235Z,72.32
2022-08-09T08:17:07.701Z,72.29
2022-08-09T08:19:41.557Z,71.92
2022-08-09T08:22:15.284Z,71.58
2022-08-09T08:24:48.643Z,71.58
2022-08-09T08:27:18.704Z,71.08
2022-08-09T08:29:52.370Z,70.16
2022-08-09T08:32:28.878Z,69.94
2022-08-09T08:35:03.528Z,69.60
2022-08-09T08:37:40.791Z,69.59
2022-08-09T08:40:09.854Z,69.74
2022-08-09T08:42:52.804Z,68.38
2022-08-09T08:45:50.721Z,68.41
2022-08-09T08:48:22.743Z,68.95
2022-08-09T08:51:09.400Z,68.27
2022-08-09T08:53:39.863Z,67.61
2022-08-09T08:56:32.113Z,68.28
2022-08-09T08:59:07.907Z,68.11
2022-08-09T09:01:56.943Z,68.05
2022-08-09T09:04:33.189Z,67.95
2022-08-09T09:07:18.441Z,68.31
2022-08-09T10:27:26.208Z,61.91
